createdAt,value
2018-07-31T00:01:32.464Z,55.51
2018-07-31T00:04:00.299Z,54.26
2018-07-31T00:06:28.113Z,53.69
2018-07-31T00:08:56.565Z,54.21
2018-07-31T00:11:24.780Z,53.67
2018-07-31T00:13:52.923Z,56.03
2018-07-31T00:16:20.832Z,53.81
2018-07-31T00:18:48.747Z,54.72
2018-07-31T00:21:16.543Z,55.86
2018-07-31T00:23:44.387Z,56.82
2018-07-31T00:26:12.258Z,56.05
2018-07-31T00:28:40.096Z,54.66
2018-07-31T00:31:07.954Z,56.32
2018-07-31T00:33:35.733Z,54.78
2018-07-31T00:36:03.879Z,53.94
2018-07-31T00:38:31.703Z,56.09
2018-07-31T00:40:59.555Z,52.64
2018-07-31T00:43:27.363Z,56.54
2018-07-31T00:45:55.870Z,54.40
2018-07-31T00:48:23.728Z,59.79
2018-07-31T00:50:51.567Z,59.21
2018-07-31T00:53:19.348Z,60.52
2018-07-31T00:55:47.223Z,58.04
2018-07-31T00:58:15.007Z,56.10
2018-07-31T01:00:42.869Z,56.69
2018-07-31T01:03:10.743Z,59.97
2018-07-31T01:05:38.519Z,57.95
2018-07-31T01:08:06.478Z,57.67
2018-07-31T01:10:34.259Z,59.59
2018-07-31T01:13:02.079Z,60.73
2018-07-31T01:15:29.860Z,62.50
2018-07-31T01:17:57.719Z,62.04
2018-07-31T01:20:25.505Z,61.05
2018-07-31T01:22:53.444Z,58.60
2018-07-31T01:25:21.282Z,59.30
2018-07-31T01:27:49.110Z,56.72
2018-07-31T01:30:17.021Z,58.06
2018-07-31T01:32:44.865Z,56.22
2018-07-31T01:35:12.714Z,59.35
2018-07-31T01:37:40.507Z,61.54
2018-07-31T01:40:08.319Z,61.95
2018-07-31T01:42:36.106Z,60.03
2018-07-31T01:45:04.100Z,59.05
2018-07-31T01:47:31.926Z,60.30
2018-07-31T01:49:59.765Z,57.94
2018-07-31T01:52:27.620Z,57.78
2018-07-31T01:54:55.447Z,60.74
2018-07-31T01:57:23.238Z,61.01
2018-07-31T01:59:51.095Z,58.95
2018-07-31T02:02:18.908Z,57.25
2018-07-31T02:04:46.730Z,59.13
2018-07-31T02:07:14.523Z,60.48
2018-07-31T02:09:42.292Z,61.41
2018-07-31T02:12:10.368Z,59.63
2018-07-31T02:14:38.159Z,61.72
2018-07-31T02:17:06.108Z,61.46
2018-07-31T02:19:33.949Z,60.53
2018-07-31T02:22:01.875Z,62.05
2018-07-31T02:24:29.768Z,63.36
2018-07-31T02:26:57.635Z,63.16
2018-07-31T02:29:31.114Z,62.04
2018-07-31T02:31:58.963Z,60.39
2018-07-31T02:34:26.787Z,60.89
2018-07-31T02:36:54.660Z,59.97
2018-07-31T02:39:22.541Z,62.02
2018-07-31T02:41:50.433Z,62.66
2018-07-31T02:44:18.211Z,60.79
2018-07-31T02:46:46.103Z,61.31
2018-07-31T02:49:13.898Z,62.07
2018-07-31T02:51:41.692Z,62.18
2018-07-31T02:54:09.748Z,61.66
2018-07-31T02:56:37.561Z,61.28
2018-07-31T02:59:05.455Z,64.96
2018-07-31T03:01:33.292Z,65.07
2018-07-31T03:04:01.165Z,65.03
2018-07-31T03:06:29.464Z,62.11
2018-07-31T03:08:57.328Z,61.51
2018-07-31T03:11:25.235Z,62.52
2018-07-31T03:13:53.047Z,64.50
2018-07-31T03:16:20.893Z,61.58
2018-07-31T03:18:48.696Z,63.98
2018-07-31T03:21:16.459Z,63.41
2018-07-31T03:23:44.279Z,61.66
2018-07-31T03:26:12.120Z,62.70
2018-07-31T03:28:39.976Z,65.55
2018-07-31T03:31:07.815Z,65.06
2018-07-31T03:33:35.650Z,65.55
2018-07-31T03:36:03.452Z,63.21
2018-07-31T03:38:31.269Z,65.99
2018-07-31T03:40:59.091Z,64.17
2018-07-31T03:43:26.947Z,67.35
2018-07-31T03:45:54.747Z,67.25
2018-07-31T03:48:22.610Z,64.47
2018-07-31T03:50:50.477Z,67.40
2018-07-31T03:53:18.358Z,64.90
2018-07-31T03:55:46.211Z,67.91
2018-07-31T03:58:14.049Z,66.05
2018-07-31T04:00:41.843Z,67.79
2018-07-31T04:03:09.632Z,67.44
2018-07-31T04:05:37.436Z,64.84
2018-07-31T04:08:05.320Z,66.25
2018-07-31T04:10:33.310Z,64.97
2018-07-31T04:13:01.136Z,62.15
2018-07-31T04:15:29.004Z,65.84
2018-07-31T04:17:57.767Z,64.24
2018-07-31T04:20:26.535Z,65.34
2018-07-31T04:22:54.422Z,67.63
2018-07-31T04:25:22.620Z,67.68
2018-07-31T04:27:50.467Z,69.20
2018-07-31T04:30:18.304Z,65.85
2018-07-31T04:32:46.107Z,67.51
2018-07-31T04:35:13.957Z,67.77
2018-07-31T04:37:41.698Z,68.23
2018-07-31T04:40:09.575Z,65.37
2018-07-31T04:42:37.463Z,68.34
2018-07-31T04:45:07.468Z,68.39
2018-07-31T04:47:35.794Z,65.88
2018-07-31T04:50:03.751Z,65.79
2018-07-31T04:52:31.627Z,63.27
2018-07-31T04:54:59.508Z,63.24
2018-07-31T04:57:27.335Z,62.53
2018-07-31T04:59:55.195Z,65.85
2018-07-31T05:02:23.384Z,66.07
2018-07-31T05:04:51.263Z,66.75
2018-07-31T05:07:19.208Z,66.44
2018-07-31T05:09:47.020Z,66.04
2018-07-31T05:12:15.199Z,66.68
2018-07-31T05:14:43.070Z,64.74
2018-07-31T05:17:11.012Z,65.14
2018-07-31T05:19:38.877Z,65.04
2018-07-31T05:22:06.739Z,63.10
2018-07-31T05:24:34.734Z,61.70
2018-07-31T05:27:02.617Z,59.85
2018-07-31T05:29:30.495Z,58.45
2018-07-31T05:31:58.388Z,56.15
2018-07-31T05:34:26.269Z,54.64
2018-07-31T05:36:54.140Z,51.41
2018-07-31T05:39:21.995Z,50.95
2018-07-31T05:41:49.859Z,51.11
2018-07-31T05:44:18.092Z,50.87
2018-07-31T05:46:46.023Z,50.07
2018-07-31T05:49:13.795Z,49.04
2018-07-31T05:51:41.723Z,49.92
2018-07-31T05:54:09.775Z,49.44
2018-07-31T05:56:37.583Z,49.05
2018-07-31T05:59:05.347Z,48.82
2018-07-31T06:01:33.176Z,48.80
2018-07-31T06:04:01.016Z,47.78
2018-07-31T06:06:28.819Z,48.23
2018-07-31T06:08:56.715Z,47.98
2018-07-31T06:11:24.601Z,47.27
2018-07-31T06:13:52.727Z,47.08
2018-07-31T06:16:20.584Z,47.96
2018-07-31T06:18:48.396Z,46.76
2018-07-31T06:21:16.306Z,47.50
2018-07-31T06:23:44.144Z,47.38
2018-07-31T06:26:11.960Z,46.78
2018-07-31T06:28:39.797Z,47.26
2018-07-31T06:31:07.855Z,46.56
2018-07-31T06:33:35.734Z,46.55
2018-07-31T06:36:03.679Z,46.68
2018-07-31T06:38:31.495Z,46.55
2018-07-31T06:40:59.395Z,46.11
2018-07-31T06:43:27.292Z,45.92
2018-07-31T06:45:55.107Z,46.62
2018-07-31T06:48:22.947Z,46.77
2018-07-31T06:50:50.801Z,45.97
2018-07-31T06:53:18.627Z,45.96
2018-07-31T06:55:46.567Z,45.53
2018-07-31T06:58:14.431Z,46.38
2018-07-31T07:00:42.306Z,45.59
2018-07-31T07:03:10.091Z,45.36
2018-07-31T07:05:37.867Z,45.54
2018-07-31T07:08:05.707Z,45.47
2018-07-31T07:10:33.642Z,45.97
2018-07-31T07:13:01.461Z,44.63
2018-07-31T07:15:29.304Z,43.71
2018-07-31T07:17:57.205Z,45.03
2018-07-31T07:20:24.991Z,44.24
2018-07-31T07:22:52.807Z,42.88
2018-07-31T07:25:20.682Z,43.67
2018-07-31T07:27:48.524Z,43.38
2018-07-31T07:30:16.341Z,43.29
2018-07-31T07:32:44.159Z,42.76
2018-07-31T07:35:11.964Z,43.11
2018-07-31T07:37:39.904Z,43.18
2018-07-31T07:40:07.746Z,42.96
2018-07-31T07:42:35.545Z,42.69
2018-07-31T07:45:03.804Z,42.92
2018-07-31T07:47:31.613Z,43.28
2018-07-31T07:49:59.403Z,42.90
2018-07-31T07:52:27.200Z,43.04
2018-07-31T07:54:55.076Z,42.77
2018-07-31T07:57:22.891Z,42.96
2018-07-31T07:59:50.718Z,42.81
2018-07-31T08:02:18.576Z,43.21
2018-07-31T08:04:46.455Z,42.21
2018-07-31T08:07:14.251Z,42.40
2018-07-31T08:09:42.089Z,42.78
2018-07-31T08:12:09.972Z,42.48
2018-07-31T08:14:37.711Z,42.03
2018-07-31T08:17:05.551Z,41.81
2018-07-31T08:19:33.356Z,40.81
2018-07-31T08:22:01.234Z,41.19
2018-07-31T08:24:28.992Z,41.47
2018-07-31T08:26:56.783Z,40.98
2018-07-31T08:29:24.621Z,40.26
2018-07-31T08:31:52.416Z,40.05
2018-07-31T08:34:20.257Z,38.74
2018-07-31T08:36:48.076Z,39.34
2018-07-31T08:39:15.839Z,38.31
2018-07-31T08:41:43.601Z,38.21
2018-07-31T08:44:11.497Z,37.74
2018-07-31T08:46:39.283Z,38.12
2018-07-31T08:49:07.107Z,37.99
2018-07-31T08:51:34.926Z,37.37
2018-07-31T08:54:02.812Z,36.87
2018-07-31T08:56:30.616Z,35.49
2018-07-31T08:58:58.451Z,37.13
2018-07-31T09:01:26.368Z,35.64
2018-07-31T09:03:54.193Z,35.72
2018-07-31T09:06:22.037Z,34.09
2018-07-31T09:08:49.863Z,33.96
2018-07-31T09:11:17.652Z,33.86
2018-07-31T09:13:45.539Z,31.99
2018-07-31T09:16:13.384Z,34.53
2018-07-31T09:18:41.171Z,33.25
2018-07-31T09:21:09.120Z,33.72
2018-07-31T09:23:37.019Z,31.69
2018-07-31T09:26:04.864Z,32.28
2018-07-31T09:28:32.688Z,32.76
2018-07-31T09:31:06.454Z,31.62
2018-07-31T09:33:34.158Z,32.85
2018-07-31T09:36:02.039Z,32.38
2018-07-31T09:38:29.868Z,30.69
2018-07-31T09:40:57.678Z,31.95
2018-07-31T09:43:25.599Z,31.88
2018-07-31T09:45:53.444Z,31.48
2018-07-31T09:48:21.291Z,30.83
2018-07-31T09:50:49.112Z,29.78
2018-07-31T09:53:16.943Z,30.22
2018-07-31T09:55:44.821Z,30.93
2018-07-31T09:58:12.624Z,29.38
2018-07-31T10:00:46.059Z,28.39
2018-07-31T10:03:13.906Z,26.91
2018-07-31T10:05:41.739Z,26.46
2018-07-31T10:08:09.652Z,26.14
2018-07-31T10:10:37.510Z,26.36
2018-07-31T10:13:05.477Z,25.42
2018-07-31T10:15:33.383Z,25.72
2018-07-31T10:18:01.224Z,25.48
2018-07-31T10:20:29.087Z,25.88
2018-07-31T10:22:56.855Z,25.86
2018-07-31T10:25:24.670Z,25.36
2018-07-31T10:27:52.470Z,25.65
2018-07-31T10:30:20.267Z,25.17
2018-07-31T10:32:48.031Z,23.66
2018-07-31T10:35:15.807Z,23.27
2018-07-31T10:37:43.761Z,22.21
2018-07-31T10:40:11.538Z,22.13
2018-07-31T10:42:39.409Z,21.28
2018-07-31T10:45:07.254Z,20.10
2018-07-31T10:47:35.028Z,19.08
2018-07-31T10:50:02.888Z,18.14
2018-07-31T10:52:30.611Z,17.69
2018-07-31T10:54:58.460Z,16.75
2018-07-31T10:57:26.210Z,16.99
2018-07-31T10:59:53.998Z,16.86
2018-07-31T11:02:21.762Z,15.45
2018-07-31T11:04:49.619Z,15.01
2018-07-31T11:07:17.573Z,14.16
2018-07-31T11:09:45.343Z,13.67
2018-07-31T11:12:13.242Z,13.61
2018-07-31T11:14:41.095Z,13.79
2018-07-31T11:17:08.969Z,13.78
2018-07-31T11:19:36.839Z,13.66
2018-07-31T11:22:04.624Z,12.96
2018-07-31T11:24:32.445Z,13.03
2018-07-31T11:27:00.330Z,12.94
2018-07-31T11:29:28.147Z,13.42
2018-07-31T11:31:56.019Z,13.69
2018-07-31T11:34:23.801Z,12.90
2018-07-31T11:36:51.606Z,13.74
2018-07-31T11:39:19.535Z,13.57
2018-07-31T11:41:47.421Z,14.15
2018-07-31T11:44:15.163Z,15.08
2018-07-31T11:46:42.976Z,14.36
2018-07-31T11:49:10.903Z,14.66
2018-07-31T11:51:38.707Z,15.62
2018-07-31T11:54:06.635Z,15.95
2018-07-31T11:56:34.488Z,16.67
2018-07-31T11:59:02.305Z,16.49
2018-07-31T12:01:30.187Z,16.02
2018-07-31T12:03:58.072Z,16.40
2018-07-31T12:06:25.931Z,16.73
2018-07-31T12:08:53.757Z,17.73
2018-07-31T12:11:21.569Z,17.71
2018-07-31T12:13:49.477Z,17.34
2018-07-31T12:16:17.287Z,17.19
2018-07-31T12:18:45.127Z,17.45
2018-07-31T12:21:12.929Z,17.17
2018-07-31T12:23:40.684Z,17.75
2018-07-31T12:26:08.481Z,16.83
2018-07-31T12:28:36.322Z,16.88
2018-07-31T12:31:04.187Z,15.88
2018-07-31T12:33:32.089Z,16.91
2018-07-31T12:35:59.880Z,16.97
2018-07-31T12:38:27.677Z,16.59
2018-07-31T12:40:55.523Z,17.09
2018-07-31T12:43:23.329Z,16.88
2018-07-31T12:45:51.147Z,17.65
2018-07-31T12:48:18.960Z,17.48
2018-07-31T12:50:46.782Z,16.68
2018-07-31T12:53:14.648Z,17.46
2018-07-31T12:55:42.417Z,16.77
2018-07-31T12:58:10.243Z,16.18
2018-07-31T13:00:38.299Z,17.11
2018-07-31T13:03:06.171Z,17.03
2018-07-31T13:05:33.933Z,16.46
2018-07-31T13:08:01.787Z,16.30
2018-07-31T13:10:29.627Z,16.95
2018-07-31T13:12:57.467Z,16.70
2018-07-31T13:15:25.252Z,16.85
2018-07-31T13:17:53.048Z,15.64
2018-07-31T13:20:20.859Z,16.95
2018-07-31T13:22:48.705Z,16.74
2018-07-31T13:25:16.555Z,16.66
2018-07-31T13:27:44.581Z,16.09
2018-07-31T13:30:12.343Z,16.69
2018-07-31T13:32:40.187Z,16.78
2018-07-31T13:35:07.963Z,17.83
2018-07-31T13:37:35.743Z,17.37
2018-07-31T13:40:03.643Z,16.87
2018-07-31T13:42:31.487Z,17.74
2018-07-31T13:44:59.283Z,17.72
2018-07-31T13:47:27.104Z,17.39
2018-07-31T13:49:54.914Z,17.78
2018-07-31T13:52:22.691Z,18.15
2018-07-31T13:54:50.535Z,17.75
2018-07-31T13:57:18.395Z,18.18
2018-07-31T13:59:46.216Z,18.43
2018-07-31T14:02:14.030Z,17.85
2018-07-31T14:04:41.730Z,17.75
2018-07-31T14:07:09.636Z,16.92
2018-07-31T14:09:37.464Z,17.87
2018-07-31T14:12:05.330Z,17.60
2018-07-31T14:14:33.111Z,18.00
2018-07-31T14:17:00.903Z,18.03
2018-07-31T14:19:28.719Z,18.81
2018-07-31T14:21:56.571Z,18.49
2018-07-31T14:24:24.441Z,18.63
2018-07-31T14:26:52.251Z,19.19
2018-07-31T14:29:20.124Z,18.84
2018-07-31T14:31:47.935Z,18.76
2018-07-31T14:34:15.732Z,19.51
2018-07-31T14:36:43.563Z,19.08
2018-07-31T14:39:11.375Z,18.51
2018-07-31T14:41:39.298Z,19.73
2018-07-31T14:44:07.320Z,19.95
2018-07-31T14:46:35.223Z,19.67
2018-07-31T14:49:03.078Z,19.66
2018-07-31T14:51:30.887Z,19.65
2018-07-31T14:53:58.707Z,19.69
2018-07-31T14:56:26.863Z,19.72
2018-07-31T14:58:54.684Z,20.21
2018-07-31T15:01:22.828Z,20.35
2018-07-31T15:03:50.745Z,19.24
2018-07-31T15:06:18.513Z,20.25
2018-07-31T15:08:46.351Z,19.93
2018-07-31T15:11:14.280Z,20.25
2018-07-31T15:13:41.963Z,20.03
2018-07-31T15:16:09.775Z,20.10
2018-07-31T15:18:37.696Z,20.12
2018-07-31T15:21:05.600Z,20.02
2018-07-31T15:23:33.463Z,19.71
2018-07-31T15:26:01.328Z,20.35
2018-07-31T15:28:29.151Z,19.33
2018-07-31T15:30:57.239Z,20.10
2018-07-31T15:33:25.427Z,19.61
2018-07-31T15:35:54.040Z,20.15
2018-07-31T15:38:21.859Z,20.51
2018-07-31T15:40:49.656Z,20.73
2018-07-31T15:43:17.535Z,20.23
2018-07-31T15:45:45.443Z,21.03
2018-07-31T15:48:13.292Z,20.64
2018-07-31T15:50:41.211Z,20.96
2018-07-31T15:53:09.260Z,22.87
2018-07-31T15:55:37.067Z,28.02
2018-07-31T15:58:04.966Z,30.71
2018-07-31T16:00:32.783Z,27.75
2018-07-31T16:03:00.607Z,30.77
2018-07-31T16:05:28.475Z,37.55
2018-07-31T16:07:56.247Z,44.42
2018-07-31T16:10:27.296Z,49.55
2018-07-31T16:12:55.159Z,45.29
2018-07-31T16:15:22.972Z,47.50
2018-07-31T16:17:50.836Z,44.66
2018-07-31T16:20:18.709Z,44.46
2018-07-31T16:22:46.648Z,48.21
2018-07-31T16:25:14.565Z,44.00
2018-07-31T16:27:42.407Z,45.80
2018-07-31T16:30:10.270Z,50.10
2018-07-31T16:32:38.089Z,50.18
2018-07-31T16:35:05.985Z,50.68
2018-07-31T16:37:33.802Z,50.33
2018-07-31T16:40:01.621Z,49.82
2018-07-31T16:42:29.433Z,53.03
2018-07-31T16:44:57.714Z,58.29
2018-07-31T16:47:56.316Z,53.78
2018-07-31T16:50:24.088Z,64.09
2018-07-31T16:52:52.010Z,55.36
2018-07-31T16:55:19.840Z,53.70
2018-07-31T16:57:47.569Z,52.05
2018-07-31T17:00:15.375Z,57.79
2018-07-31T17:02:43.171Z,56.74
2018-07-31T17:05:11.071Z,55.01
2018-07-31T17:07:38.983Z,52.26
2018-07-31T17:10:06.801Z,51.03
2018-07-31T17:12:35.120Z,50.54
2018-07-31T17:15:03.513Z,49.06
2018-07-31T17:17:31.354Z,49.15
2018-07-31T17:19:59.180Z,49.21
2018-07-31T17:22:27.047Z,48.87
2018-07-31T17:24:54.962Z,49.13
2018-07-31T17:27:22.816Z,50.38
2018-07-31T17:29:50.687Z,48.98
2018-07-31T17:32:18.508Z,48.20
2018-07-31T17:34:46.368Z,46.90
2018-07-31T17:37:14.207Z,45.73
2018-07-31T17:39:42.144Z,45.78
2018-07-31T17:42:09.968Z,45.95
2018-07-31T17:44:37.838Z,44.09
2018-07-31T17:47:05.807Z,44.39
2018-07-31T17:49:33.726Z,45.04
2018-07-31T17:52:01.556Z,45.60
2018-07-31T17:54:29.555Z,44.06
2018-07-31T17:56:57.347Z,44.35
2018-07-31T17:59:25.200Z,44.99
2018-07-31T18:01:52.986Z,47.63
2018-07-31T18:04:20.872Z,52.29
2018-07-31T18:06:48.683Z,51.04
2018-07-31T18:09:16.470Z,49.53
2018-07-31T18:11:44.323Z,46.36
2018-07-31T18:14:12.173Z,45.88
2018-07-31T18:16:39.954Z,47.70
2018-07-31T18:19:08.460Z,45.75
2018-07-31T18:21:36.383Z,44.39
2018-07-31T18:24:04.996Z,44.66
2018-07-31T18:26:32.768Z,45.61
2018-07-31T18:29:00.961Z,45.11
2018-07-31T18:31:28.894Z,49.69
2018-07-31T18:33:56.681Z,50.63
2018-07-31T18:36:24.624Z,52.45
2018-07-31T18:38:52.650Z,51.37
2018-07-31T18:41:20.454Z,51.41
2018-07-31T18:43:48.319Z,48.65
2018-07-31T18:46:16.155Z,50.20
2018-07-31T18:48:44.000Z,50.90
2018-07-31T18:51:11.868Z,50.94
2018-07-31T18:53:39.716Z,51.18
2018-07-31T18:56:07.789Z,51.42
2018-07-31T18:58:35.579Z,50.64
2018-07-31T19:01:03.531Z,50.12
2018-07-31T19:03:31.403Z,48.72
2018-07-31T19:05:59.173Z,50.36
2018-07-31T19:08:27.014Z,49.91
2018-07-31T19:10:54.790Z,51.48
2018-07-31T19:13:22.738Z,51.53
2018-07-31T19:15:50.801Z,49.79
2018-07-31T19:18:19.615Z,49.23
2018-07-31T19:20:47.519Z,50.33
2018-07-31T19:23:15.291Z,50.71
2018-07-31T19:25:43.295Z,49.66
2018-07-31T19:28:11.260Z,49.29
2018-07-31T19:30:38.986Z,51.16
2018-07-31T19:33:06.908Z,51.73
2018-07-31T19:35:34.705Z,50.92
2018-07-31T19:38:02.535Z,48.69
2018-07-31T19:40:30.413Z,51.20
2018-07-31T19:42:58.063Z,49.06
2018-07-31T19:45:26.028Z,49.01
2018-07-31T19:47:54.048Z,48.78
2018-07-31T19:50:22.815Z,53.34
2018-07-31T19:52:50.907Z,47.79
2018-07-31T19:55:18.885Z,49.07
2018-07-31T19:57:46.688Z,48.46
2018-07-31T20:00:14.556Z,48.84
2018-07-31T20:02:42.555Z,48.01
2018-07-31T20:05:10.422Z,48.32
2018-07-31T20:07:38.604Z,47.31
2018-07-31T20:10:06.791Z,48.09
2018-07-31T20:12:34.735Z,48.53
2018-07-31T20:15:02.647Z,51.70
2018-07-31T20:17:30.465Z,49.95
2018-07-31T20:19:58.313Z,50.68
2018-07-31T20:22:26.207Z,51.40
2018-07-31T20:24:55.807Z,51.18
2018-07-31T20:27:23.658Z,52.52
2018-07-31T20:29:51.494Z,51.42
2018-07-31T20:32:19.279Z,50.08
2018-07-31T20:34:47.407Z,50.20
2018-07-31T20:37:15.148Z,50.68
2018-07-31T20:39:42.974Z,50.48
2018-07-31T20:42:10.878Z,52.51
2018-07-31T20:44:38.687Z,49.85
2018-07-31T20:47:07.209Z,50.50
2018-07-31T20:49:34.983Z,50.63
2018-07-31T20:52:02.855Z,50.10
2018-07-31T20:54:30.679Z,50.13
2018-07-31T20:56:58.456Z,49.72
2018-07-31T20:59:26.638Z,49.64
2018-07-31T21:01:54.495Z,49.28
2018-07-31T21:04:22.543Z,48.75
2018-07-31T21:06:50.376Z,48.40
2018-07-31T21:09:18.783Z,48.70
2018-07-31T21:11:46.787Z,48.99
2018-07-31T21:14:14.809Z,48.27
2018-07-31T21:16:42.716Z,48.38
2018-07-31T21:19:10.567Z,50.57
2018-07-31T21:21:38.344Z,51.86
2018-07-31T21:24:06.564Z,49.99
2018-07-31T21:26:34.489Z,49.11
2018-07-31T21:29:02.408Z,50.68
2018-07-31T21:31:30.334Z,50.40
2018-07-31T21:33:58.148Z,52.46
2018-07-31T21:36:25.979Z,51.79
2018-07-31T21:38:53.740Z,50.54
2018-07-31T21:41:21.567Z,50.35
2018-07-31T21:43:49.401Z,50.33
2018-07-31T21:46:17.214Z,51.19
2018-07-31T21:48:45.041Z,51.06
2018-07-31T21:51:12.796Z,51.04
2018-07-31T21:53:40.625Z,50.82
2018-07-31T21:56:08.484Z,50.94
2018-07-31T21:58:36.291Z,51.89
2018-07-31T22:01:07.093Z,51.64
2018-07-31T22:03:36.247Z,51.52
2018-07-31T22:06:04.760Z,51.32
2018-07-31T22:08:33.043Z,51.71
2018-07-31T22:11:01.116Z,50.30
2018-07-31T22:13:29.016Z,51.72
2018-07-31T22:15:56.854Z,51.18
2018-07-31T22:18:24.663Z,52.21
2018-07-31T22:20:52.487Z,50.61
2018-07-31T22:23:20.342Z,51.56
2018-07-31T22:25:48.195Z,50.96
2018-07-31T22:28:15.969Z,50.46
2018-07-31T22:30:43.811Z,51.05
2018-07-31T22:33:11.748Z,50.46
2018-07-31T22:35:39.706Z,51.14
2018-07-31T22:38:07.530Z,52.09
2018-07-31T22:40:35.364Z,50.66
2018-07-31T22:43:03.247Z,51.70
2018-07-31T22:45:31.116Z,51.59
2018-07-31T22:47:58.828Z,51.27
2018-07-31T22:50:26.684Z,50.23
2018-07-31T22:52:54.463Z,51.29
2018-07-31T22:55:22.239Z,49.83
2018-07-31T22:57:50.080Z,50.58
2018-07-31T23:00:17.965Z,50.94
2018-07-31T23:02:45.834Z,50.91
2018-07-31T23:05:13.563Z,52.54
2018-07-31T23:07:41.388Z,50.37
2018-07-31T23:10:09.193Z,51.75
2018-07-31T23:12:37.039Z,52.20
2018-07-31T23:15:06.273Z,50.61
2018-07-31T23:17:34.147Z,50.99
2018-07-31T23:20:03.093Z,50.90
2018-07-31T23:22:46.201Z,51.87
2018-07-31T23:25:13.960Z,51.06
2018-07-31T23:27:41.730Z,52.25
2018-07-31T23:30:09.799Z,52.42
2018-07-31T23:32:37.984Z,52.29
2018-07-31T23:35:06.073Z,52.78
2018-07-31T23:37:33.970Z,51.42
2018-07-31T23:40:02.723Z,51.30
2018-07-31T23:42:31.177Z,50.80
2018-07-31T23:44:59.064Z,51.74
2018-07-31T23:47:27.983Z,51.98
2018-07-31T23:49:56.291Z,51.92
2018-07-31T23:52:24.173Z,51.41
2018-07-31T23:54:52.191Z,52.10
2018-07-31T23:57:20.071Z,52.11
2018-07-31T23:59:48.095Z,51.80
